createdAt,value
2022-07-29T00:00:55.126Z,21.30
2022-07-29T00:03:22.762Z,21.50
2022-07-29T00:05:50.313Z,21.50
2022-07-29T00:08:17.888Z,21.40
2022-07-29T00:10:45.461Z,21.30
2022-07-29T00:13:13.094Z,21.20
2022-07-29T00:15:41.447Z,21.00
2022-07-29T00:18:09.020Z,21.00
2022-07-29T00:20:37.382Z,20.90
2022-07-29T00:23:04.966Z,20.80
2022-07-29T00:25:33.885Z,20.90
2022-07-29T00:28:00.892Z,20.90
2022-07-29T00:30:29.245Z,21.10
2022-07-29T00:32:56.821Z,21.10
2022-07-29T00:35:42.334Z,21.00
2022-07-29T00:38:09.897Z,20.90
2022-07-29T00:40:37.470Z,20.70
2022-07-29T00:43:05.064Z,20.70
2022-07-29T00:45:32.640Z,20.60
2022-07-29T00:48:00.213Z,20.50
2022-07-29T00:50:28.575Z,20.50
2022-07-29T00:52:56.149Z,20.50
2022-07-29T00:55:23.722Z,20.40
2022-07-29T00:57:51.336Z,20.30
2022-07-29T01:00:18.911Z,20.20
2022-07-29T01:02:46.485Z,20.10
2022-07-29T01:05:14.858Z,20.20
2022-07-29T01:07:42.430Z,20.10
2022-07-29T01:10:10.890Z,20.00
2022-07-29T01:12:38.465Z,20.00
2022-07-29T01:15:07.024Z,20.10
2022-07-29T01:17:53.683Z,20.10
2022-07-29T01:20:41.912Z,19.90
2022-07-29T01:23:22.068Z,19.90
2022-07-29T01:26:13.952Z,19.90
2022-07-29T01:29:18.362Z,19.80
2022-07-29T01:32:04.208Z,19.60
2022-07-29T01:34:31.726Z,19.50
2022-07-29T01:37:07.857Z,19.40
2022-07-29T01:39:35.429Z,19.30
2022-07-29T01:42:11.718Z,19.50
2022-07-29T01:45:00.470Z,19.40
2022-07-29T01:47:33.788Z,19.30
2022-07-29T01:50:02.139Z,19.40
2022-07-29T01:52:32.409Z,19.40
2022-07-29T01:55:00.012Z,19.60
2022-07-29T01:57:27.588Z,19.40
2022-07-29T01:59:55.163Z,19.30
2022-07-29T02:02:23.523Z,19.20
2022-07-29T02:04:51.151Z,19.20
2022-07-29T02:07:19.449Z,19.30
2022-07-29T02:09:47.044Z,19.20
2022-07-29T02:12:15.385Z,19.00
2022-07-29T02:14:42.959Z,19.00
2022-07-29T02:17:10.562Z,18.90
2022-07-29T02:19:38.138Z,18.70
2022-07-29T02:22:05.720Z,18.90
2022-07-29T02:24:34.309Z,18.80
2022-07-29T02:27:01.897Z,18.70
2022-07-29T02:29:30.235Z,18.70
2022-07-29T02:31:57.828Z,18.70
2022-07-29T02:34:25.405Z,18.70
2022-07-29T02:36:53.750Z,18.50
2022-07-29T02:39:21.339Z,18.40
2022-07-29T02:41:49.682Z,18.30
2022-07-29T02:44:20.560Z,18.30
2022-07-29T02:46:56.538Z,18.30
2022-07-29T02:49:27.801Z,18.40
2022-07-29T02:51:56.095Z,18.30
2022-07-29T02:54:23.699Z,18.30
2022-07-29T02:56:52.042Z,18.40
2022-07-29T02:59:19.619Z,18.40
2022-07-29T03:01:48.011Z,18.60
2022-07-29T03:04:15.812Z,18.50
2022-07-29T03:06:43.893Z,18.60
2022-07-29T03:09:13.602Z,18.60
2022-07-29T03:11:46.166Z,18.60
2022-07-29T03:14:06.694Z,18.40
2022-07-29T03:16:38.058Z,18.30
2022-07-29T03:19:02.633Z,18.10
2022-07-29T03:21:30.206Z,18.10
2022-07-29T03:23:57.804Z,18.10
2022-07-29T03:26:25.373Z,18.00
2022-07-29T03:28:52.956Z,17.90
2022-07-29T03:31:21.820Z,17.80
2022-07-29T03:33:49.325Z,17.70
2022-07-29T03:36:16.900Z,17.70
2022-07-29T03:38:45.271Z,17.80
2022-07-29T03:41:12.836Z,17.80
2022-07-29T03:43:49.053Z,17.70
2022-07-29T03:46:08.840Z,17.60
2022-07-29T03:48:37.173Z,17.80
2022-07-29T03:51:04.692Z,17.80
2022-07-29T03:53:32.295Z,17.80
2022-07-29T03:55:59.870Z,17.90
2022-07-29T03:58:27.452Z,18.10
2022-07-29T04:00:55.045Z,18.00
2022-07-29T04:03:22.678Z,17.90
2022-07-29T04:06:04.999Z,17.80
2022-07-29T04:08:32.601Z,17.70
2022-07-29T04:11:00.936Z,17.70
2022-07-29T04:13:28.538Z,17.70
2022-07-29T04:15:56.146Z,17.70
2022-07-29T04:18:23.686Z,17.80
2022-07-29T04:20:51.305Z,17.70
2022-07-29T04:23:19.660Z,17.50
2022-07-29T04:25:47.237Z,17.50
2022-07-29T04:28:15.617Z,17.30
2022-07-29T04:30:44.030Z,17.30
2022-07-29T04:33:12.342Z,17.10
2022-07-29T04:35:49.862Z,17.20
2022-07-29T04:38:07.600Z,17.10
2022-07-29T04:40:35.961Z,17.30
2022-07-29T04:43:06.067Z,17.30
2022-07-29T04:45:32.713Z,17.20
2022-07-29T04:48:00.318Z,17.20
2022-07-29T04:50:27.941Z,17.10
2022-07-29T04:52:56.294Z,17.00
2022-07-29T04:55:23.867Z,17.00
2022-07-29T04:57:51.471Z,16.90
2022-07-29T05:00:19.152Z,16.90
2022-07-29T05:02:46.761Z,16.90
2022-07-29T05:05:15.042Z,16.80
2022-07-29T05:07:41.914Z,16.80
2022-07-29T05:10:09.537Z,16.80
2022-07-29T05:12:37.144Z,16.80
2022-07-29T05:15:04.774Z,16.80
2022-07-29T05:17:33.138Z,16.90
2022-07-29T05:20:01.706Z,16.90
2022-07-29T05:22:29.278Z,17.00
2022-07-29T05:24:57.633Z,17.20
2022-07-29T05:27:25.609Z,17.20
2022-07-29T05:29:53.204Z,17.30
2022-07-29T05:32:21.555Z,17.60
2022-07-29T05:34:51.818Z,17.50
2022-07-29T05:37:17.647Z,17.60
2022-07-29T05:39:47.133Z,17.60
2022-07-29T05:42:13.721Z,17.70
2022-07-29T05:44:41.306Z,17.70
2022-07-29T05:47:09.659Z,17.70
2022-07-29T05:49:37.339Z,17.70
2022-07-29T05:52:04.825Z,17.80
2022-07-29T05:54:32.409Z,17.80
2022-07-29T05:57:00.299Z,17.80
2022-07-29T05:59:30.425Z,17.90
2022-07-29T06:01:55.525Z,17.90
2022-07-29T06:04:23.875Z,18.50
2022-07-29T06:06:52.190Z,18.50
2022-07-29T06:09:19.756Z,18.50
2022-07-29T06:11:47.369Z,18.40
2022-07-29T06:14:15.154Z,18.40
2022-07-29T06:16:43.358Z,18.40
2022-07-29T06:19:10.958Z,18.40
2022-07-29T06:21:38.670Z,18.40
2022-07-29T06:24:06.234Z,18.50
2022-07-29T06:26:39.239Z,18.50
2022-07-29T06:29:01.450Z,18.60
2022-07-29T06:31:29.034Z,18.60
2022-07-29T06:33:57.416Z,19.00
2022-07-29T06:36:25.772Z,19.00
2022-07-29T06:38:53.356Z,19.00
2022-07-29T06:41:21.734Z,19.40
2022-07-29T06:43:51.932Z,19.40
2022-07-29T06:46:17.667Z,19.40
2022-07-29T06:48:45.307Z,19.50
2022-07-29T06:51:12.837Z,19.80
2022-07-29T06:53:40.401Z,20.10
2022-07-29T06:56:09.010Z,20.10
2022-07-29T06:58:36.583Z,20.10
2022-07-29T07:01:04.992Z,20.30
2022-07-29T07:03:32.628Z,20.30
2022-07-29T07:06:00.972Z,20.40
2022-07-29T07:08:28.554Z,20.40
2022-07-29T07:10:56.935Z,20.50
2022-07-29T07:13:25.276Z,20.60
2022-07-29T07:15:52.852Z,20.50
2022-07-29T07:18:20.477Z,20.60
2022-07-29T07:20:48.049Z,20.60
2022-07-29T07:23:15.662Z,20.70
2022-07-29T07:25:43.808Z,20.90
2022-07-29T07:28:11.382Z,21.00
2022-07-29T07:30:39.740Z,21.60
2022-07-29T07:33:07.397Z,21.60
2022-07-29T07:35:34.980Z,21.60
2022-07-29T07:38:03.325Z,21.70
2022-07-29T07:40:30.935Z,21.70
2022-07-29T07:42:59.279Z,21.70
2022-07-29T07:45:26.930Z,21.70
2022-07-29T07:47:54.468Z,21.80
2022-07-29T07:50:22.085Z,21.80
2022-07-29T07:52:52.746Z,21.80
2022-07-29T07:55:20.378Z,21.80
2022-07-29T07:57:48.721Z,21.90
2022-07-29T08:00:16.304Z,21.90
2022-07-29T08:02:46.765Z,22.00
2022-07-29T08:05:15.361Z,22.40
2022-07-29T08:07:42.945Z,22.30
2022-07-29T08:10:10.560Z,22.40
2022-07-29T08:12:38.144Z,22.50
2022-07-29T08:15:05.845Z,22.70
2022-07-29T08:17:35.367Z,22.70
2022-07-29T08:20:01.055Z,22.70
2022-07-29T08:22:28.626Z,22.90
2022-07-29T08:24:56.240Z,23.10
2022-07-29T08:27:42.413Z,23.10
2022-07-29T08:29:51.398Z,23.30
2022-07-29T08:32:36.916Z,23.30
2022-07-29T08:34:46.576Z,23.50
2022-07-29T08:37:14.165Z,23.70
2022-07-29T08:39:41.775Z,23.70
2022-07-29T08:42:10.115Z,23.80
2022-07-29T08:44:37.700Z,23.80
2022-07-29T08:47:06.082Z,23.70
2022-07-29T08:49:37.150Z,23.80
2022-07-29T08:52:04.735Z,23.80
2022-07-29T08:54:32.369Z,23.90
2022-07-29T08:56:59.943Z,23.90
2022-07-29T08:59:27.530Z,24.20
2022-07-29T09:01:55.577Z,24.20
2022-07-29T09:04:23.473Z,24.40
2022-07-29T09:06:51.100Z,24.40
2022-07-29T09:09:19.447Z,24.50
2022-07-29T09:11:47.801Z,24.60
2022-07-29T09:14:15.378Z,24.50
2022-07-29T09:16:53.783Z,24.90
2022-07-29T09:19:32.196Z,24.90
2022-07-29T09:21:59.851Z,25.00
2022-07-29T09:24:27.362Z,25.10
2022-07-29T09:26:55.156Z,25.20
2022-07-29T09:29:22.598Z,25.30
2022-07-29T09:31:50.267Z,25.30
2022-07-29T09:34:23.713Z,25.30
2022-07-29T09:36:52.327Z,25.50
2022-07-29T09:39:38.712Z,25.50
2022-07-29T09:42:07.254Z,25.50
2022-07-29T09:44:43.538Z,25.60
2022-07-29T09:47:11.521Z,25.70
2022-07-29T09:49:59.869Z,25.80
2022-07-29T09:52:27.797Z,25.90
2022-07-29T09:54:55.370Z,25.90
2022-07-29T09:57:27.254Z,26.00
2022-07-29T09:59:57.330Z,26.00
2022-07-29T10:02:24.904Z,26.10
2022-07-29T10:04:52.489Z,26.10
2022-07-29T10:07:20.880Z,26.10
2022-07-29T10:09:51.165Z,26.20
2022-07-29T10:12:18.746Z,26.20
2022-07-29T10:14:47.128Z,26.40
2022-07-29T10:17:14.704Z,26.40
2022-07-29T10:19:42.286Z,26.50
2022-07-29T10:22:10.184Z,26.50
2022-07-29T10:24:37.759Z,26.60
2022-07-29T10:27:06.121Z,26.80
2022-07-29T10:29:34.069Z,26.80
2022-07-29T10:32:25.948Z,26.90
2022-07-29T10:35:17.021Z,27.30
2022-07-29T10:37:47.528Z,27.30
2022-07-29T10:40:48.195Z,27.40
2022-07-29T10:43:21.499Z,27.40
2022-07-29T10:45:50.209Z,27.80
2022-07-29T10:48:17.476Z,27.70
2022-07-29T10:50:53.911Z,27.90
2022-07-29T10:53:22.286Z,28.20
2022-07-29T10:55:50.625Z,28.20
2022-07-29T10:58:18.835Z,28.20
2022-07-29T11:00:46.679Z,28.20
2022-07-29T11:03:35.483Z,28.20
2022-07-29T11:06:03.105Z,28.20
2022-07-29T11:08:30.678Z,28.20
2022-07-29T11:11:22.202Z,28.20
2022-07-29T11:13:49.279Z,28.20
2022-07-29T11:16:16.700Z,28.20
2022-07-29T11:19:13.120Z,28.20
2022-07-29T11:21:55.390Z,28.40
2022-07-29T11:24:18.602Z,28.50
2022-07-29T11:26:42.786Z,28.50
2022-07-29T11:29:20.362Z,28.50
2022-07-29T11:31:47.948Z,28.50
2022-07-29T11:37:06.777Z,28.40
2022-07-29T11:39:37.743Z,28.40
2022-07-29T11:42:32.332Z,28.60
2022-07-29T11:45:41.520Z,28.50
2022-07-29T11:47:38.142Z,28.50
2022-07-29T11:50:04.876Z,28.60
2022-07-29T11:52:49.943Z,28.60
2022-07-29T11:55:11.732Z,28.60
2022-07-29T11:57:39.379Z,28.50
2022-07-29T12:00:09.799Z,28.60
2022-07-29T12:02:41.453Z,28.60
2022-07-29T12:05:10.728Z,28.60
2022-07-29T12:07:01.565Z,28.40
2022-07-29T12:07:36.544Z,28.80
2022-07-29T12:10:04.118Z,29.00
2022-07-29T12:12:31.694Z,29.30
2022-07-29T12:14:59.306Z,29.50
2022-07-29T12:17:26.879Z,29.60
2022-07-29T12:19:54.447Z,29.50
2022-07-29T12:22:28.015Z,29.50
2022-07-29T12:25:02.297Z,29.50
2022-07-29T12:27:29.244Z,29.50
2022-07-29T12:29:58.476Z,29.90
2022-07-29T12:32:26.124Z,29.90
2022-07-29T12:34:53.625Z,29.90
2022-07-29T12:37:21.239Z,29.80
2022-07-29T12:39:49.580Z,29.70
2022-07-29T12:42:18.691Z,29.70
2022-07-29T12:44:44.770Z,29.70
2022-07-29T12:47:12.348Z,29.70
2022-07-29T12:49:39.916Z,29.90
2022-07-29T12:52:25.806Z,29.90
2022-07-29T12:54:53.379Z,30.00
2022-07-29T12:57:20.952Z,30.10
2022-07-29T12:59:48.567Z,30.10
2022-07-29T13:02:22.329Z,30.10
2022-07-29T13:04:59.055Z,30.10
2022-07-29T13:07:55.757Z,30.10
2022-07-29T13:09:54.223Z,30.00
2022-07-29T13:12:22.604Z,30.10
2022-07-29T13:14:50.950Z,30.20
2022-07-29T13:17:32.971Z,30.20
2022-07-29T13:20:08.858Z,30.10
2022-07-29T13:22:34.544Z,30.20
2022-07-29T13:25:02.964Z,29.90
2022-07-29T13:27:31.340Z,29.70
2022-07-29T13:29:58.850Z,29.70
2022-07-29T13:32:29.302Z,29.60
2022-07-29T13:34:56.845Z,29.50
2022-07-29T13:37:25.176Z,29.50
2022-07-29T13:39:53.376Z,29.40
2022-07-29T13:42:20.385Z,29.30
2022-07-29T13:44:47.959Z,29.50
2022-07-29T13:47:15.572Z,29.50
2022-07-29T13:49:43.904Z,29.30
2022-07-29T13:52:11.498Z,29.30
2022-07-29T13:54:42.711Z,29.30
2022-07-29T13:57:09.276Z,29.40
2022-07-29T13:59:36.850Z,29.50
2022-07-29T14:02:05.231Z,29.60
2022-07-29T14:04:33.625Z,29.70
2022-07-29T14:07:03.547Z,29.60
2022-07-29T14:09:28.751Z,29.70
2022-07-29T14:11:56.662Z,30.00
2022-07-29T14:14:23.900Z,30.20
2022-07-29T14:16:52.475Z,30.30
2022-07-29T14:19:19.077Z,30.30
2022-07-29T14:21:46.641Z,30.30
2022-07-29T14:24:18.036Z,30.40
2022-07-29T14:26:41.820Z,30.40
2022-07-29T14:29:09.404Z,30.50
2022-07-29T14:31:37.824Z,30.60
2022-07-29T14:34:06.137Z,30.70
2022-07-29T14:36:33.712Z,30.70
2022-07-29T14:39:02.092Z,30.90
2022-07-29T14:41:30.435Z,31.00
2022-07-29T14:43:58.008Z,31.10
2022-07-29T14:46:25.661Z,31.10
2022-07-29T14:48:53.233Z,31.00
2022-07-29T14:51:20.771Z,31.10
2022-07-29T14:53:48.404Z,31.00
2022-07-29T14:56:36.215Z,31.00
2022-07-29T14:58:51.500Z,31.00
2022-07-29T15:01:11.232Z,31.00
2022-07-29T15:03:38.758Z,30.90
2022-07-29T15:06:06.326Z,31.00
2022-07-29T15:08:34.510Z,31.00
2022-07-29T15:11:02.098Z,31.10
2022-07-29T15:13:29.666Z,31.10
2022-07-29T15:16:00.181Z,31.40
2022-07-29T15:18:26.390Z,31.50
2022-07-29T15:20:53.954Z,31.50
2022-07-29T15:23:21.587Z,31.70
2022-07-29T15:25:49.171Z,31.80
2022-07-29T15:28:16.745Z,32.00
2022-07-29T15:30:45.324Z,31.80
2022-07-29T15:33:12.898Z,31.70
2022-07-29T15:35:41.240Z,31.60
2022-07-29T15:38:08.882Z,31.60
2022-07-29T15:40:36.446Z,31.60
2022-07-29T15:43:06.960Z,31.80
2022-07-29T15:45:40.833Z,31.80
2022-07-29T15:48:07.824Z,31.80
2022-07-29T15:50:35.398Z,31.80
2022-07-29T15:53:03.053Z,31.80
2022-07-29T15:55:30.617Z,31.80
2022-07-29T15:58:00.641Z,32.00
2022-07-29T16:00:25.804Z,31.90
2022-07-29T16:02:53.377Z,31.80
2022-07-29T16:05:20.952Z,32.00
2022-07-29T16:07:48.566Z,32.00
2022-07-29T16:10:16.139Z,31.90
2022-07-29T16:12:43.723Z,32.10
2022-07-29T16:15:11.384Z,32.00
2022-07-29T16:17:39.738Z,31.80
2022-07-29T16:20:07.450Z,31.80
2022-07-29T16:22:35.408Z,31.70
2022-07-29T16:25:02.992Z,31.80
2022-07-29T16:27:35.412Z,31.70
2022-07-29T16:29:58.968Z,31.60
2022-07-29T16:32:26.503Z,31.60
2022-07-29T16:34:54.854Z,31.50
2022-07-29T16:37:22.498Z,31.50
2022-07-29T16:39:50.081Z,31.60
2022-07-29T16:42:37.067Z,31.60
2022-07-29T16:44:46.029Z,31.70
2022-07-29T16:47:13.600Z,31.70
2022-07-29T16:49:41.945Z,31.70
2022-07-29T16:52:09.549Z,31.70
2022-07-29T16:54:37.130Z,31.80
2022-07-29T16:57:04.695Z,31.80
2022-07-29T16:59:32.309Z,31.80
2022-07-29T17:02:00.709Z,31.80
2022-07-29T17:04:28.228Z,31.80
2022-07-29T17:06:56.130Z,31.80
2022-07-29T17:09:23.412Z,31.80
2022-07-29T17:11:53.359Z,31.80
2022-07-29T17:14:18.610Z,31.70
2022-07-29T17:16:55.012Z,31.50
2022-07-29T17:19:13.759Z,31.50
2022-07-29T17:21:48.371Z,31.40
2022-07-29T17:24:09.724Z,31.30
2022-07-29T17:26:37.289Z,31.20
2022-07-29T17:29:04.922Z,31.30
2022-07-29T17:31:32.537Z,31.40
2022-07-29T17:34:00.177Z,31.30
2022-07-29T17:36:27.674Z,31.10
2022-07-29T17:38:55.259Z,30.90
2022-07-29T17:41:22.833Z,30.70
2022-07-29T17:43:50.811Z,30.50
2022-07-29T17:46:18.474Z,30.30
2022-07-29T17:48:45.985Z,30.00
2022-07-29T17:51:14.339Z,29.60
2022-07-29T17:53:42.681Z,29.50
2022-07-29T17:56:10.276Z,29.50
2022-07-29T17:58:38.647Z,28.90
2022-07-29T18:01:07.058Z,28.60
2022-07-29T18:03:34.583Z,28.60
2022-07-29T18:06:03.240Z,28.50
2022-07-29T18:08:30.814Z,28.40
2022-07-29T18:10:58.389Z,28.20
2022-07-29T18:13:26.760Z,28.10
2022-07-29T18:15:58.748Z,27.90
2022-07-29T18:18:22.677Z,27.90
2022-07-29T18:20:50.280Z,27.70
2022-07-29T18:23:17.854Z,27.50
2022-07-29T18:25:45.497Z,27.30
2022-07-29T18:28:13.357Z,27.20
2022-07-29T18:30:41.689Z,26.80
2022-07-29T18:33:24.687Z,26.80
2022-07-29T18:35:36.876Z,26.70
2022-07-29T18:38:04.440Z,26.50
2022-07-29T18:40:32.024Z,26.40
2022-07-29T18:42:59.628Z,26.40
2022-07-29T18:45:28.686Z,26.10
2022-07-29T18:47:55.545Z,26.10
2022-07-29T18:50:28.598Z,26.00
2022-07-29T18:52:51.697Z,26.10
2022-07-29T18:55:19.262Z,26.20
2022-07-29T18:57:56.192Z,25.90
2022-07-29T19:00:16.034Z,25.80
2022-07-29T19:02:43.671Z,25.80
2022-07-29T19:05:11.518Z,25.70
2022-07-29T19:07:39.091Z,25.50
2022-07-29T19:10:06.705Z,25.40
2022-07-29T19:12:34.318Z,25.30
2022-07-29T19:15:02.660Z,25.20
2022-07-29T19:17:30.239Z,25.10
2022-07-29T19:19:57.858Z,25.10
2022-07-29T19:22:25.442Z,24.90
2022-07-29T19:24:53.016Z,25.10
2022-07-29T19:27:20.993Z,25.00
2022-07-29T19:29:48.610Z,24.90
2022-07-29T19:32:25.302Z,24.90
2022-07-29T19:34:49.848Z,24.90
2022-07-29T19:37:13.299Z,24.80
2022-07-29T19:39:41.650Z,24.70
2022-07-29T19:42:09.264Z,24.70
2022-07-29T19:44:36.838Z,24.60
2022-07-29T19:47:04.412Z,24.40
2022-07-29T19:49:32.032Z,24.40
2022-07-29T19:52:00.377Z,24.10
2022-07-29T19:54:27.953Z,24.10
2022-07-29T19:56:57.416Z,24.00
2022-07-29T19:59:24.805Z,23.90
2022-07-29T20:01:53.197Z,24.00
2022-07-29T20:04:20.769Z,24.00
2022-07-29T20:06:48.374Z,24.00
2022-07-29T20:09:20.469Z,24.10
2022-07-29T20:11:43.905Z,24.00
2022-07-29T20:14:11.490Z,24.00
2022-07-29T20:16:39.064Z,23.90
2022-07-29T20:19:07.435Z,23.60
2022-07-29T20:21:35.787Z,23.50
2022-07-29T20:24:03.391Z,23.50
2022-07-29T20:26:30.995Z,23.40
2022-07-29T20:28:58.558Z,23.50
2022-07-29T20:31:26.194Z,23.40
2022-07-29T20:33:54.091Z,23.30
2022-07-29T20:36:21.665Z,23.30
2022-07-29T20:38:49.230Z,23.20
2022-07-29T20:41:16.863Z,23.10
2022-07-29T20:43:44.440Z,23.00
2022-07-29T20:46:12.092Z,22.80
2022-07-29T20:48:39.775Z,22.70
2022-07-29T20:51:07.189Z,22.60
2022-07-29T20:53:34.783Z,22.70
2022-07-29T20:56:02.426Z,22.60
2022-07-29T20:58:30.002Z,22.40
2022-07-29T21:00:57.585Z,22.30
2022-07-29T21:03:26.212Z,22.50
2022-07-29T21:05:53.786Z,22.50
2022-07-29T21:08:21.361Z,22.40
2022-07-29T21:10:48.984Z,22.20
2022-07-29T21:13:16.550Z,22.30
2022-07-29T21:15:44.165Z,22.10
2022-07-29T21:18:11.989Z,21.90
2022-07-29T21:20:39.552Z,21.70
2022-07-29T21:23:07.136Z,21.60
2022-07-29T21:25:34.750Z,21.50
2022-07-29T21:28:20.671Z,21.30
2022-07-29T21:30:48.232Z,21.20
2022-07-29T21:33:15.856Z,21.10
2022-07-29T21:36:06.884Z,21.20
2022-07-29T21:38:11.791Z,21.10
2022-07-29T21:40:39.366Z,21.10
2022-07-29T21:43:06.941Z,20.90
2022-07-29T21:45:34.554Z,20.80
2022-07-29T21:48:02.126Z,20.70
2022-07-29T21:50:29.701Z,20.90
2022-07-29T21:52:57.610Z,20.80
2022-07-29T21:55:26.266Z,20.70
2022-07-29T21:57:53.546Z,20.70
2022-07-29T22:00:22.173Z,20.70
2022-07-29T22:02:49.708Z,20.60
2022-07-29T22:05:18.050Z,20.30
2022-07-29T22:07:56.521Z,20.30
2022-07-29T22:10:13.238Z,20.20
2022-07-29T22:12:40.822Z,20.40
2022-07-29T22:15:08.533Z,20.20
2022-07-29T22:17:36.876Z,20.00
2022-07-29T22:20:04.550Z,20.00
2022-07-29T22:22:32.163Z,19.90
2022-07-29T22:25:00.060Z,19.80
2022-07-29T22:27:27.637Z,19.70
2022-07-29T22:29:55.240Z,19.60
2022-07-29T22:32:22.806Z,19.60
2022-07-29T22:34:50.378Z,19.70
2022-07-29T22:37:17.991Z,19.60
2022-07-29T22:39:46.344Z,19.40
2022-07-29T22:42:13.919Z,19.40
2022-07-29T22:44:42.368Z,19.20
2022-07-29T22:47:09.942Z,19.20
2022-07-29T22:49:37.515Z,19.20
2022-07-29T22:52:06.901Z,19.50
2022-07-29T22:54:34.475Z,19.50
2022-07-29T22:57:02.426Z,19.40
2022-07-29T22:59:30.413Z,19.20
2022-07-29T23:01:58.056Z,19.10
2022-07-29T23:04:26.328Z,18.90
2022-07-29T23:06:53.942Z,18.90
2022-07-29T23:09:21.555Z,18.80
2022-07-29T23:11:49.090Z,19.00
2022-07-29T23:14:17.728Z,18.90
2022-07-29T23:16:46.162Z,18.70
2022-07-29T23:19:13.655Z,18.70
2022-07-29T23:21:42.025Z,18.80
2022-07-29T23:24:09.610Z,18.70
2022-07-29T23:26:37.944Z,18.60
2022-07-29T23:29:05.545Z,18.60
2022-07-29T23:31:33.888Z,18.60
2022-07-29T23:34:01.461Z,18.60
2022-07-29T23:36:29.065Z,18.50
2022-07-29T23:38:56.629Z,18.70
2022-07-29T23:41:24.203Z,18.60
2022-07-29T23:43:51.797Z,18.40
2022-07-29T23:46:23.951Z,18.30
2022-07-29T23:48:46.982Z,18.10
2022-07-29T23:51:15.297Z,18.00
2022-07-29T23:53:53.400Z,17.90
2022-07-29T23:56:10.449Z,17.90
2022-07-29T23:58:38.040Z,17.80
